createdAt,value
2023-06-17T00:01:40.072Z,16.1
2023-06-17T00:17:22.809Z,14.3
2023-06-17T00:33:05.662Z,16.79
2023-06-17T00:48:48.276Z,17.79
2023-06-17T01:04:31.163Z,17.4
2023-06-17T01:20:13.452Z,21.6
2023-06-17T01:35:55.846Z,20.2
2023-06-17T01:51:38.374Z,18.7
2023-06-17T02:07:20.508Z,19
2023-06-17T02:23:03.071Z,22.2
2023-06-17T02:38:45.407Z,24.7
2023-06-17T02:54:28.258Z,24.9
2023-06-17T03:10:10.479Z,26.1
2023-06-17T03:25:53.230Z,23.2
2023-06-17T03:41:36.235Z,22
2023-06-17T03:57:18.499Z,19.6
2023-06-17T04:13:00.891Z,19.79
2023-06-17T04:28:43.898Z,18.4
2023-06-17T04:44:25.994Z,15.4
2023-06-17T05:00:08.168Z,13.1
2023-06-17T05:15:51.062Z,16.2
2023-06-17T05:31:33.912Z,16.1
2023-06-17T05:47:16.506Z,15.4
2023-06-17T06:02:58.992Z,16.79
2023-06-17T06:18:41.668Z,15.6
2023-06-17T06:34:24.489Z,12.8
2023-06-17T06:50:07.217Z,11.7
2023-06-17T07:05:49.890Z,14.3
2023-06-17T07:21:32.549Z,13.8
2023-06-17T07:37:15.372Z,14
2023-06-17T07:52:57.728Z,15.6
2023-06-17T08:08:39.993Z,15
2023-06-17T08:55:47.685Z,12
2023-06-17T09:11:30.057Z,11.5
2023-06-17T09:27:12.109Z,10.2
2023-06-17T09:42:54.645Z,10.7
2023-06-17T09:58:36.855Z,11.7
2023-06-17T10:14:19.037Z,10.2
2023-06-17T10:30:01.591Z,10.6
2023-06-17T10:45:44.022Z,9.8
2023-06-17T11:01:26.544Z,10.2
2023-06-17T11:17:08.630Z,8
2023-06-17T11:32:50.886Z,8.39
2023-06-17T11:48:33.407Z,7.3
2023-06-17T12:04:15.689Z,8.2
2023-06-17T12:19:58.599Z,7.9
2023-06-17T12:35:40.943Z,11.1
2023-06-17T12:51:23.005Z,8.39
2023-06-17T13:07:05.517Z,7.8
2023-06-17T13:22:47.624Z,8.6
2023-06-17T13:38:30.031Z,8.39
2023-06-17T13:54:12.701Z,8.2
2023-06-17T14:09:54.904Z,6.9
2023-06-17T14:25:37.363Z,6.9
2023-06-17T14:41:19.918Z,7.6
2023-06-17T14:57:02.823Z,6.3
2023-06-17T15:12:44.980Z,6
2023-06-17T15:28:27.288Z,7
2023-06-17T15:44:10.047Z,5.7
2023-06-17T15:59:52.216Z,5.1
2023-06-17T16:15:34.690Z,5.4
2023-06-17T16:31:17.194Z,5.4
2023-06-17T16:46:59.408Z,6.3
2023-06-17T17:02:41.502Z,5.6
2023-06-17T17:18:23.754Z,5.2
2023-06-17T17:34:06.003Z,4.69
2023-06-17T17:49:48.722Z,4.69
2023-06-17T18:05:30.844Z,5.8
2023-06-17T18:21:13.038Z,6.7
2023-06-17T18:36:55.035Z,8.2
2023-06-17T18:52:37.104Z,7.2
2023-06-17T18:53:24.346Z,7.5
2023-06-17T19:09:06.627Z,9.39
2023-06-17T19:24:49.571Z,9.3
2023-06-17T19:40:32.097Z,11.1
2023-06-17T19:56:14.260Z,13.2
2023-06-17T20:11:56.695Z,15.9
2023-06-17T20:27:39.475Z,20.29
2023-06-17T20:43:22.287Z,21.7
2023-06-17T20:59:04.967Z,32.4
2023-06-17T21:14:47.372Z,24.6
2023-06-17T21:30:29.826Z,22.5
2023-06-17T21:46:12.323Z,22.9
2023-06-17T22:01:55.124Z,23.6
2023-06-17T22:17:37.543Z,22.3
2023-06-17T22:33:20.321Z,23.3
2023-06-17T22:49:02.534Z,23.3
2023-06-17T23:04:44.812Z,25.5
2023-06-17T23:20:27.203Z,27.6
2023-06-17T23:36:09.794Z,27.3
2023-06-17T23:51:51.949Z,25.7
